KHCR

Heber City Municipal - Russ McDonald Field Airport

Heber, Utah, USA
METAR KHCR 201655Z AUTO 00000KT 10SM CLR 07/00 A3042 RMK AO2
Observed Flight Rules
Oct-20 @ 16:55 UTC (21 minutes ago) Visual Flight Rules
Visibility Clouds
10 miles
  • Clear skies
Temperatures Readings
Current 7°C / 45°F
Dewpoint 0°C / 32°F
Humidity 61%
Altimeter 30.42" Hg
Pressure 1030 hPa
Elevation 1706
METAR KHCR 201655Z AUTO 00000KT 10SM CLR 07/00 A3042 RMK AO2
Observed Flight Rules
Oct-20 @ 16:55 UTC
(21 minutes ago)
VFR
Clouds
  • Clear skies
Temperature Dewpoint
7°C / 45°F 0°C / 32°F
Humidity Altimeter Pressure
61% 30.42" Hg 1030 hPa